sensor_id;sensor_type;location;lat;lon;timestamp;P1;durP1;ratioP1;P2;durP2;ratioP2
33954;SDS011;20233;50.804;7.126;2024-01-16T00:00:31;11.50;;;6.25;;
33954;SDS011;20233;50.804;7.126;2024-01-16T00:02:57;10.43;;;6.65;;
33954;SDS011;20233;50.804;7.126;2024-01-16T00:05:23;13.98;;;6.80;;
33954;SDS011;20233;50.804;7.126;2024-01-16T00:07:49;10.95;;;6.38;;
33954;SDS011;20233;50.804;7.126;2024-01-16T00:10:15;13.18;;;6.57;;
33954;SDS011;20233;50.804;7.126;2024-01-16T00:12:41;14.70;;;7.35;;
33954;SDS011;20233;50.804;7.126;2024-01-16T00:15:07;11.25;;;7.00;;
33954;SDS011;20233;50.804;7.126;2024-01-16T00:17:34;15.02;;;6.47;;
33954;SDS011;20233;50.804;7.126;2024-01-16T00:20:00;12.73;;;7.47;;
33954;SDS011;20233;50.804;7.126;2024-01-16T00:22:29;15.27;;;6.75;;
33954;SDS011;20233;50.804;7.126;2024-01-16T00:24:54;13.43;;;7.55;;
33954;SDS011;20233;50.804;7.126;2024-01-16T00:27:20;21.80;;;8.82;;
33954;SDS011;20233;50.804;7.126;2024-01-16T00:29:46;12.57;;;7.13;;
33954;SDS011;20233;50.804;7.126;2024-01-16T00:32:12;12.18;;;6.72;;
33954;SDS011;20233;50.804;7.126;2024-01-16T00:34:41;13.35;;;6.97;;
33954;SDS011;20233;50.804;7.126;2024-01-16T00:37:07;16.17;;;7.57;;
33954;SDS011;20233;50.804;7.126;2024-01-16T00:39:32;13.65;;;6.95;;
33954;SDS011;20233;50.804;7.126;2024-01-16T00:41:58;13.90;;;6.90;;
33954;SDS011;20233;50.804;7.126;2024-01-16T00:44:23;18.48;;;7.72;;
33954;SDS011;20233;50.804;7.126;2024-01-16T00:46:49;13.45;;;6.50;;
33954;SDS011;20233;50.804;7.126;2024-01-16T00:49:15;14.57;;;6.82;;
33954;SDS011;20233;50.804;7.126;2024-01-16T00:51:41;17.67;;;7.10;;
33954;SDS011;20233;50.804;7.126;2024-01-16T00:54:06;14.05;;;6.80;;
33954;SDS011;20233;50.804;7.126;2024-01-16T00:56:33;14.05;;;6.25;;
33954;SDS011;20233;50.804;7.126;2024-01-16T00:58:59;12.75;;;6.50;;
33954;SDS011;20233;50.804;7.126;2024-01-16T01:01:25;15.55;;;7.35;;
33954;SDS011;20233;50.804;7.126;2024-01-16T01:03:51;14.60;;;6.20;;
33954;SDS011;20233;50.804;7.126;2024-01-16T01:06:17;13.32;;;5.50;;
33954;SDS011;20233;50.804;7.126;2024-01-16T01:08:43;12.25;;;5.40;;
33954;SDS011;20233;50.804;7.126;2024-01-16T01:11:08;13.00;;;6.28;;
33954;SDS011;20233;50.804;7.126;2024-01-16T01:13:34;12.10;;;5.72;;
33954;SDS011;20233;50.804;7.126;2024-01-16T01:15:59;16.15;;;6.03;;
33954;SDS011;20233;50.804;7.126;2024-01-16T01:18:25;11.90;;;5.38;;
33954;SDS011;20233;50.804;7.126;2024-01-16T01:20:51;12.80;;;5.47;;
33954;SDS011;20233;50.804;7.126;2024-01-16T01:23:16;11.68;;;5.55;;
33954;SDS011;20233;50.804;7.126;2024-01-16T01:25:42;11.15;;;6.13;;
33954;SDS011;20233;50.804;7.126;2024-01-16T01:28:08;11.48;;;5.47;;
33954;SDS011;20233;50.804;7.126;2024-01-16T01:30:33;14.07;;;6.20;;
33954;SDS011;20233;50.804;7.126;2024-01-16T01:32:59;14.55;;;5.60;;
33954;SDS011;20233;50.804;7.126;2024-01-16T01:35:24;11.55;;;4.68;;
33954;SDS011;20233;50.804;7.126;2024-01-16T01:37:50;16.83;;;5.28;;
33954;SDS011;20233;50.804;7.126;2024-01-16T01:40:16;10.98;;;4.78;;
33954;SDS011;20233;50.804;7.126;2024-01-16T01:42:41;15.18;;;5.80;;
33954;SDS011;20233;50.804;7.126;2024-01-16T01:45:10;11.23;;;4.15;;
33954;SDS011;20233;50.804;7.126;2024-01-16T01:47:44;9.85;;;4.78;;
33954;SDS011;20233;50.804;7.126;2024-01-16T01:50:11;11.63;;;5.50;;
33954;SDS011;20233;50.804;7.126;2024-01-16T01:52:38;11.45;;;4.43;;
33954;SDS011;20233;50.804;7.126;2024-01-16T01:55:05;14.48;;;5.32;;
33954;SDS011;20233;50.804;7.126;2024-01-16T01:57:35;10.98;;;4.57;;
33954;SDS011;20233;50.804;7.126;2024-01-16T02:00:01;10.55;;;5.55;;
33954;SDS011;20233;50.804;7.126;2024-01-16T02:02:28;10.98;;;5.50;;
33954;SDS011;20233;50.804;7.126;2024-01-16T02:04:54;12.20;;;5.70;;
33954;SDS011;20233;50.804;7.126;2024-01-16T02:07:20;11.38;;;5.65;;
33954;SDS011;20233;50.804;7.126;2024-01-16T02:09:46;13.38;;;5.43;;
33954;SDS011;20233;50.804;7.126;2024-01-16T02:12:12;11.32;;;5.45;;
33954;SDS011;20233;50.804;7.126;2024-01-16T02:14:38;13.30;;;5.18;;
33954;SDS011;20233;50.804;7.126;2024-01-16T02:17:03;12.63;;;6.03;;
33954;SDS011;20233;50.804;7.126;2024-01-16T02:19:29;9.27;;;5.80;;
33954;SDS011;20233;50.804;7.126;2024-01-16T02:21:59;16.95;;;7.05;;
33954;SDS011;20233;50.804;7.126;2024-01-16T02:24:26;14.05;;;6.80;;
33954;SDS011;20233;50.804;7.126;2024-01-16T02:26:51;13.10;;;6.22;;
33954;SDS011;20233;50.804;7.126;2024-01-16T02:29:18;16.08;;;6.30;;
33954;SDS011;20233;50.804;7.126;2024-01-16T02:31:43;12.57;;;6.18;;
33954;SDS011;20233;50.804;7.126;2024-01-16T02:34:09;16.35;;;6.40;;
33954;SDS011;20233;50.804;7.126;2024-01-16T02:36:34;13.32;;;6.18;;
33954;SDS011;20233;50.804;7.126;2024-01-16T02:39:00;15.73;;;6.38;;
33954;SDS011;20233;50.804;7.126;2024-01-16T02:41:25;12.52;;;6.47;;
33954;SDS011;20233;50.804;7.126;2024-01-16T02:43:51;13.43;;;6.30;;
33954;SDS011;20233;50.804;7.126;2024-01-16T02:46:17;17.52;;;6.70;;
33954;SDS011;20233;50.804;7.126;2024-01-16T02:48:42;19.23;;;8.38;;
33954;SDS011;20233;50.804;7.126;2024-01-16T02:51:08;17.58;;;6.60;;
33954;SDS011;20233;50.804;7.126;2024-01-16T02:53:35;25.48;;;7.60;;
33954;SDS011;20233;50.804;7.126;2024-01-16T02:56:01;9.65;;;6.65;;
33954;SDS011;20233;50.804;7.126;2024-01-16T02:58:26;15.27;;;6.72;;
33954;SDS011;20233;50.804;7.126;2024-01-16T03:00:53;18.00;;;6.97;;
33954;SDS011;20233;50.804;7.126;2024-01-16T03:03:19;18.88;;;7.22;;
33954;SDS011;20233;50.804;7.126;2024-01-16T03:05:45;16.65;;;6.45;;
33954;SDS011;20233;50.804;7.126;2024-01-16T03:08:12;14.10;;;6.95;;
33954;SDS011;20233;50.804;7.126;2024-01-16T03:10:38;14.63;;;7.03;;
33954;SDS011;20233;50.804;7.126;2024-01-16T03:13:03;16.23;;;7.13;;
33954;SDS011;20233;50.804;7.126;2024-01-16T03:15:29;16.10;;;6.20;;
33954;SDS011;20233;50.804;7.126;2024-01-16T03:17:56;14.50;;;6.60;;
33954;SDS011;20233;50.804;7.126;2024-01-16T03:20:26;13.52;;;5.97;;
33954;SDS011;20233;50.804;7.126;2024-01-16T03:22:52;11.50;;;6.75;;
33954;SDS011;20233;50.804;7.126;2024-01-16T03:25:18;12.63;;;7.13;;
33954;SDS011;20233;50.804;7.126;2024-01-16T03:27:44;12.93;;;6.28;;
33954;SDS011;20233;50.804;7.126;2024-01-16T03:30:10;18.15;;;6.22;;
33954;SDS011;20233;50.804;7.126;2024-01-16T03:32:37;13.77;;;6.00;;
33954;SDS011;20233;50.804;7.126;2024-01-16T03:35:03;13.57;;;5.47;;
33954;SDS011;20233;50.804;7.126;2024-01-16T03:37:32;13.52;;;7.03;;
33954;SDS011;20233;50.804;7.126;2024-01-16T03:39:58;17.88;;;7.18;;
33954;SDS011;20233;50.804;7.126;2024-01-16T03:42:24;16.48;;;6.50;;
33954;SDS011;20233;50.804;7.126;2024-01-16T03:44:50;16.77;;;6.97;;
33954;SDS011;20233;50.804;7.126;2024-01-16T03:47:16;11.73;;;5.53;;
33954;SDS011;20233;50.804;7.126;2024-01-16T03:49:41;16.73;;;7.30;;
33954;SDS011;20233;50.804;7.126;2024-01-16T03:52:07;16.95;;;7.32;;
33954;SDS011;20233;50.804;7.126;2024-01-16T03:54:33;17.55;;;7.13;;
33954;SDS011;20233;50.804;7.126;2024-01-16T03:56:58;12.77;;;7.50;;
33954;SDS011;20233;50.804;7.126;2024-01-16T03:59:24;13.93;;;7.43;;
33954;SDS011;20233;50.804;7.126;2024-01-16T04:01:49;17.88;;;8.25;;
33954;SDS011;20233;50.804;7.126;2024-01-16T04:04:15;15.70;;;7.68;;
33954;SDS011;20233;50.804;7.126;2024-01-16T04:06:41;14.75;;;7.68;;
33954;SDS011;20233;50.804;7.126;2024-01-16T04:09:07;13.40;;;7.22;;
33954;SDS011;20233;50.804;7.126;2024-01-16T04:11:33;15.93;;;7.85;;
33954;SDS011;20233;50.804;7.126;2024-01-16T04:13:59;15.43;;;8.00;;
33954;SDS011;20233;50.804;7.126;2024-01-16T04:16:25;14.02;;;8.13;;
33954;SDS011;20233;50.804;7.126;2024-01-16T04:18:50;20.13;;;8.60;;
33954;SDS011;20233;50.804;7.126;2024-01-16T04:21:16;14.65;;;8.40;;
33954;SDS011;20233;50.804;7.126;2024-01-16T04:23:42;19.55;;;8.15;;
33954;SDS011;20233;50.804;7.126;2024-01-16T04:26:07;15.93;;;8.45;;
33954;SDS011;20233;50.804;7.126;2024-01-16T04:28:33;17.35;;;8.57;;
33954;SDS011;20233;50.804;7.126;2024-01-16T04:31:00;17.05;;;7.55;;
33954;SDS011;20233;50.804;7.126;2024-01-16T04:33:26;18.70;;;9.20;;
33954;SDS011;20233;50.804;7.126;2024-01-16T04:35:52;13.07;;;7.95;;
33954;SDS011;20233;50.804;7.126;2024-01-16T04:38:17;18.25;;;8.10;;
33954;SDS011;20233;50.804;7.126;2024-01-16T04:40:43;14.60;;;7.82;;
33954;SDS011;20233;50.804;7.126;2024-01-16T04:43:09;18.67;;;8.27;;
33954;SDS011;20233;50.804;7.126;2024-01-16T04:45:34;14.38;;;7.97;;
33954;SDS011;20233;50.804;7.126;2024-01-16T04:48:00;15.75;;;8.23;;
33954;SDS011;20233;50.804;7.126;2024-01-16T04:50:25;15.63;;;8.13;;
33954;SDS011;20233;50.804;7.126;2024-01-16T04:52:56;12.50;;;6.13;;
33954;SDS011;20233;50.804;7.126;2024-01-16T04:55:24;17.50;;;8.48;;
33954;SDS011;20233;50.804;7.126;2024-01-16T04:57:55;12.32;;;7.07;;
33954;SDS011;20233;50.804;7.126;2024-01-16T05:00:22;17.17;;;7.95;;
33954;SDS011;20233;50.804;7.126;2024-01-16T05:02:49;14.63;;;6.32;;
33954;SDS011;20233;50.804;7.126;2024-01-16T05:05:14;15.30;;;7.38;;
33954;SDS011;20233;50.804;7.126;2024-01-16T05:07:40;14.15;;;7.38;;
33954;SDS011;20233;50.804;7.126;2024-01-16T05:10:06;13.98;;;6.82;;
33954;SDS011;20233;50.804;7.126;2024-01-16T05:12:34;12.38;;;6.70;;
33954;SDS011;20233;50.804;7.126;2024-01-16T05:14:59;14.80;;;7.18;;
33954;SDS011;20233;50.804;7.126;2024-01-16T05:17:25;12.68;;;6.85;;
33954;SDS011;20233;50.804;7.126;2024-01-16T05:19:50;13.10;;;7.13;;
33954;SDS011;20233;50.804;7.126;2024-01-16T05:22:16;18.60;;;8.32;;
33954;SDS011;20233;50.804;7.126;2024-01-16T05:24:41;10.63;;;6.70;;
33954;SDS011;20233;50.804;7.126;2024-01-16T05:27:07;20.63;;;7.00;;
33954;SDS011;20233;50.804;7.126;2024-01-16T05:29:34;12.68;;;6.72;;
33954;SDS011;20233;50.804;7.126;2024-01-16T05:32:03;12.35;;;7.53;;
33954;SDS011;20233;50.804;7.126;2024-01-16T05:34:29;14.55;;;8.20;;
33954;SDS011;20233;50.804;7.126;2024-01-16T05:36:55;18.38;;;8.27;;
33954;SDS011;20233;50.804;7.126;2024-01-16T05:39:20;15.95;;;7.85;;
33954;SDS011;20233;50.804;7.126;2024-01-16T05:41:46;16.63;;;7.65;;
33954;SDS011;20233;50.804;7.126;2024-01-16T05:44:11;16.58;;;7.95;;
33954;SDS011;20233;50.804;7.126;2024-01-16T05:46:37;16.50;;;7.80;;
33954;SDS011;20233;50.804;7.126;2024-01-16T05:49:02;20.02;;;7.90;;
33954;SDS011;20233;50.804;7.126;2024-01-16T05:51:28;15.38;;;7.20;;
33954;SDS011;20233;50.804;7.126;2024-01-16T05:53:57;23.83;;;9.23;;
33954;SDS011;20233;50.804;7.126;2024-01-16T05:56:22;17.30;;;7.72;;
33954;SDS011;20233;50.804;7.126;2024-01-16T05:58:48;16.25;;;7.25;;
33954;SDS011;20233;50.804;7.126;2024-01-16T06:01:13;16.27;;;8.20;;
33954;SDS011;20233;50.804;7.126;2024-01-16T06:03:39;15.30;;;6.45;;
33954;SDS011;20233;50.804;7.126;2024-01-16T06:06:05;19.55;;;7.90;;
33954;SDS011;20233;50.804;7.126;2024-01-16T06:08:32;14.63;;;6.80;;
33954;SDS011;20233;50.804;7.126;2024-01-16T06:10:58;15.55;;;7.07;;
33954;SDS011;20233;50.804;7.126;2024-01-16T06:15:58;17.15;;;6.43;;
33954;SDS011;20233;50.804;7.126;2024-01-16T06:18:24;18.42;;;6.68;;
33954;SDS011;20233;50.804;7.126;2024-01-16T06:20:51;15.55;;;6.88;;
33954;SDS011;20233;50.804;7.126;2024-01-16T06:23:28;13.85;;;7.55;;
33954;SDS011;20233;50.804;7.126;2024-01-16T06:25:54;12.55;;;5.85;;
33954;SDS011;20233;50.804;7.126;2024-01-16T06:28:20;12.80;;;5.97;;
33954;SDS011;20233;50.804;7.126;2024-01-16T06:30:45;13.50;;;5.70;;
33954;SDS011;20233;50.804;7.126;2024-01-16T06:33:15;19.45;;;6.53;;
33954;SDS011;20233;50.804;7.126;2024-01-16T06:35:40;15.77;;;5.63;;
33954;SDS011;20233;50.804;7.126;2024-01-16T06:38:06;20.52;;;6.15;;
33954;SDS011;20233;50.804;7.126;2024-01-16T06:40:31;15.63;;;5.47;;
33954;SDS011;20233;50.804;7.126;2024-01-16T06:43:00;12.68;;;5.60;;
33954;SDS011;20233;50.804;7.126;2024-01-16T06:45:57;12.02;;;5.38;;
33954;SDS011;20233;50.804;7.126;2024-01-16T06:48:58;14.43;;;5.00;;
33954;SDS011;20233;50.804;7.126;2024-01-16T06:51:30;14.50;;;5.10;;
33954;SDS011;20233;50.804;7.126;2024-01-16T06:53:56;19.25;;;5.60;;
33954;SDS011;20233;50.804;7.126;2024-01-16T06:56:21;19.15;;;5.97;;
33954;SDS011;20233;50.804;7.126;2024-01-16T06:58:49;17.80;;;5.20;;
33954;SDS011;20233;50.804;7.126;2024-01-16T07:01:14;13.60;;;4.35;;
33954;SDS011;20233;50.804;7.126;2024-01-16T07:03:40;17.15;;;4.80;;
33954;SDS011;20233;50.804;7.126;2024-01-16T07:06:06;15.63;;;5.25;;
33954;SDS011;20233;50.804;7.126;2024-01-16T07:08:31;13.98;;;5.30;;
33954;SDS011;20233;50.804;7.126;2024-01-16T07:10:57;16.35;;;6.72;;
33954;SDS011;20233;50.804;7.126;2024-01-16T07:13:23;14.10;;;4.20;;
33954;SDS011;20233;50.804;7.126;2024-01-16T07:15:49;13.80;;;4.50;;
33954;SDS011;20233;50.804;7.126;2024-01-16T07:18:14;14.63;;;3.50;;
33954;SDS011;20233;50.804;7.126;2024-01-16T07:20:40;10.80;;;3.78;;
33954;SDS011;20233;50.804;7.126;2024-01-16T07:23:05;13.60;;;3.65;;
33954;SDS011;20233;50.804;7.126;2024-01-16T07:25:31;16.67;;;5.28;;
33954;SDS011;20233;50.804;7.126;2024-01-16T07:27:57;14.00;;;4.10;;
33954;SDS011;20233;50.804;7.126;2024-01-16T07:30:23;12.55;;;3.83;;
33954;SDS011;20233;50.804;7.126;2024-01-16T07:32:49;9.50;;;2.97;;
33954;SDS011;20233;50.804;7.126;2024-01-16T07:35:16;9.40;;;3.35;;
33954;SDS011;20233;50.804;7.126;2024-01-16T07:37:41;9.20;;;2.65;;
33954;SDS011;20233;50.804;7.126;2024-01-16T07:40:08;7.35;;;2.38;;
33954;SDS011;20233;50.804;7.126;2024-01-16T07:42:34;8.75;;;1.83;;
33954;SDS011;20233;50.804;7.126;2024-01-16T07:45:01;12.85;;;2.55;;
33954;SDS011;20233;50.804;7.126;2024-01-16T07:47:30;12.45;;;2.97;;
33954;SDS011;20233;50.804;7.126;2024-01-16T07:49:56;13.63;;;2.75;;
33954;SDS011;20233;50.804;7.126;2024-01-16T07:52:22;12.13;;;3.80;;
33954;SDS011;20233;50.804;7.126;2024-01-16T07:54:48;10.70;;;2.67;;
33954;SDS011;20233;50.804;7.126;2024-01-16T07:57:14;8.75;;;1.58;;
33954;SDS011;20233;50.804;7.126;2024-01-16T07:59:39;9.23;;;1.70;;
33954;SDS011;20233;50.804;7.126;2024-01-16T08:02:06;5.85;;;1.55;;
33954;SDS011;20233;50.804;7.126;2024-01-16T08:04:31;7.10;;;1.80;;
33954;SDS011;20233;50.804;7.126;2024-01-16T08:06:57;13.20;;;2.15;;
33954;SDS011;20233;50.804;7.126;2024-01-16T08:09:23;6.32;;;2.03;;
33954;SDS011;20233;50.804;7.126;2024-01-16T08:11:49;11.50;;;2.28;;
33954;SDS011;20233;50.804;7.126;2024-01-16T08:14:14;12.60;;;3.00;;
33954;SDS011;20233;50.804;7.126;2024-01-16T08:16:40;7.10;;;1.98;;
33954;SDS011;20233;50.804;7.126;2024-01-16T08:19:05;10.98;;;2.75;;
33954;SDS011;20233;50.804;7.126;2024-01-16T08:21:31;6.10;;;1.90;;
33954;SDS011;20233;50.804;7.126;2024-01-16T08:23:57;6.95;;;2.10;;
33954;SDS011;20233;50.804;7.126;2024-01-16T08:26:22;4.55;;;1.30;;
33954;SDS011;20233;50.804;7.126;2024-01-16T08:28:48;6.45;;;1.90;;
33954;SDS011;20233;50.804;7.126;2024-01-16T08:31:16;8.32;;;1.50;;
33954;SDS011;20233;50.804;7.126;2024-01-16T08:33:43;10.23;;;1.70;;
33954;SDS011;20233;50.804;7.126;2024-01-16T08:36:09;10.57;;;2.33;;
33954;SDS011;20233;50.804;7.126;2024-01-16T08:38:34;9.88;;;1.90;;
33954;SDS011;20233;50.804;7.126;2024-01-16T08:41:00;8.52;;;1.10;;
33954;SDS011;20233;50.804;7.126;2024-01-16T08:43:25;11.65;;;1.25;;
33954;SDS011;20233;50.804;7.126;2024-01-16T08:45:51;5.85;;;1.20;;
33954;SDS011;20233;50.804;7.126;2024-01-16T08:48:16;7.80;;;1.58;;
33954;SDS011;20233;50.804;7.126;2024-01-16T08:50:43;9.85;;;1.23;;
33954;SDS011;20233;50.804;7.126;2024-01-16T08:53:10;6.78;;;0.95;;
33954;SDS011;20233;50.804;7.126;2024-01-16T08:55:36;4.20;;;1.20;;
33954;SDS011;20233;50.804;7.126;2024-01-16T08:58:02;5.80;;;1.83;;
33954;SDS011;20233;50.804;7.126;2024-01-16T09:00:28;4.63;;;1.00;;
33954;SDS011;20233;50.804;7.126;2024-01-16T09:02:54;9.27;;;1.10;;
33954;SDS011;20233;50.804;7.126;2024-01-16T09:05:19;8.23;;;0.98;;
33954;SDS011;20233;50.804;7.126;2024-01-16T09:07:50;7.50;;;1.20;;
33954;SDS011;20233;50.804;7.126;2024-01-16T09:10:16;8.40;;;1.45;;
33954;SDS011;20233;50.804;7.126;2024-01-16T09:12:42;7.50;;;1.25;;
33954;SDS011;20233;50.804;7.126;2024-01-16T09:15:07;7.00;;;1.50;;
33954;SDS011;20233;50.804;7.126;2024-01-16T09:17:34;7.32;;;2.28;;
33954;SDS011;20233;50.804;7.126;2024-01-16T09:20:00;9.85;;;1.80;;
33954;SDS011;20233;50.804;7.126;2024-01-16T09:22:25;7.38;;;1.85;;
33954;SDS011;20233;50.804;7.126;2024-01-16T09:24:51;9.90;;;1.70;;
33954;SDS011;20233;50.804;7.126;2024-01-16T09:27:16;8.77;;;1.80;;
33954;SDS011;20233;50.804;7.126;2024-01-16T09:29:42;8.00;;;2.00;;
33954;SDS011;20233;50.804;7.126;2024-01-16T09:32:07;7.88;;;2.33;;
33954;SDS011;20233;50.804;7.126;2024-01-16T09:34:33;8.80;;;1.77;;
33954;SDS011;20233;50.804;7.126;2024-01-16T09:36:58;8.80;;;2.17;;
33954;SDS011;20233;50.804;7.126;2024-01-16T09:39:27;14.82;;;3.05;;
33954;SDS011;20233;50.804;7.126;2024-01-16T09:41:52;6.15;;;1.50;;
33954;SDS011;20233;50.804;7.126;2024-01-16T09:44:20;7.53;;;1.80;;
33954;SDS011;20233;50.804;7.126;2024-01-16T09:46:46;8.38;;;2.00;;
33954;SDS011;20233;50.804;7.126;2024-01-16T09:49:14;5.20;;;1.88;;
33954;SDS011;20233;50.804;7.126;2024-01-16T09:51:43;6.80;;;1.50;;
33954;SDS011;20233;50.804;7.126;2024-01-16T09:54:20;6.82;;;1.13;;
33954;SDS011;20233;50.804;7.126;2024-01-16T09:56:59;5.10;;;1.45;;
33954;SDS011;20233;50.804;7.126;2024-01-16T09:59:27;10.38;;;1.92;;
33954;SDS011;20233;50.804;7.126;2024-01-16T10:01:55;6.45;;;1.65;;
33954;SDS011;20233;50.804;7.126;2024-01-16T10:04:21;8.60;;;1.52;;
33954;SDS011;20233;50.804;7.126;2024-01-16T10:06:49;9.15;;;2.55;;
33954;SDS011;20233;50.804;7.126;2024-01-16T10:09:18;4.55;;;1.23;;
33954;SDS011;20233;50.804;7.126;2024-01-16T10:11:44;4.47;;;0.95;;
33954;SDS011;20233;50.804;7.126;2024-01-16T10:14:11;7.10;;;1.27;;
33954;SDS011;20233;50.804;7.126;2024-01-16T10:19:22;6.95;;;1.60;;
33954;SDS011;20233;50.804;7.126;2024-01-16T10:21:49;5.15;;;1.60;;
33954;SDS011;20233;50.804;7.126;2024-01-16T10:24:15;5.78;;;1.30;;
33954;SDS011;20233;50.804;7.126;2024-01-16T10:26:41;7.22;;;1.08;;
33954;SDS011;20233;50.804;7.126;2024-01-16T10:29:07;7.53;;;1.40;;
33954;SDS011;20233;50.804;7.126;2024-01-16T10:31:34;7.90;;;1.60;;
33954;SDS011;20233;50.804;7.126;2024-01-16T10:33:59;6.78;;;1.20;;
33954;SDS011;20233;50.804;7.126;2024-01-16T10:36:25;5.68;;;1.40;;
33954;SDS011;20233;50.804;7.126;2024-01-16T10:38:51;5.25;;;1.40;;
33954;SDS011;20233;50.804;7.126;2024-01-16T10:41:27;8.10;;;1.42;;
33954;SDS011;20233;50.804;7.126;2024-01-16T10:44:04;5.97;;;2.17;;
33954;SDS011;20233;50.804;7.126;2024-01-16T10:46:35;4.68;;;1.17;;
33954;SDS011;20233;50.804;7.126;2024-01-16T10:49:02;6.78;;;1.27;;
33954;SDS011;20233;50.804;7.126;2024-01-16T10:51:29;4.35;;;0.80;;
33954;SDS011;20233;50.804;7.126;2024-01-16T10:54:01;6.15;;;1.95;;
33954;SDS011;20233;50.804;7.126;2024-01-16T10:56:32;4.40;;;1.00;;
33954;SDS011;20233;50.804;7.126;2024-01-16T10:59:16;5.90;;;1.33;;
33954;SDS011;20233;50.804;7.126;2024-01-16T11:01:48;5.80;;;0.90;;
33954;SDS011;20233;50.804;7.126;2024-01-16T11:04:17;5.68;;;0.90;;
33954;SDS011;20233;50.804;7.126;2024-01-16T11:06:43;10.70;;;2.35;;
33954;SDS011;20233;50.804;7.126;2024-01-16T11:09:09;6.47;;;1.65;;
33954;SDS011;20233;50.804;7.126;2024-01-16T11:11:40;5.60;;;1.25;;
33954;SDS011;20233;50.804;7.126;2024-01-16T11:14:08;8.90;;;1.30;;
33954;SDS011;20233;50.804;7.126;2024-01-16T11:16:36;8.13;;;1.02;;
33954;SDS011;20233;50.804;7.126;2024-01-16T11:19:03;8.57;;;1.52;;
33954;SDS011;20233;50.804;7.126;2024-01-16T11:21:32;7.60;;;1.80;;
33954;SDS011;20233;50.804;7.126;2024-01-16T11:24:02;7.45;;;0.80;;
33954;SDS011;20233;50.804;7.126;2024-01-16T11:26:29;8.77;;;1.85;;
33954;SDS011;20233;50.804;7.126;2024-01-16T11:31:53;12.03;;;1.77;;
33954;SDS011;20233;50.804;7.126;2024-01-16T11:37:31;9.00;;;1.15;;
33954;SDS011;20233;50.804;7.126;2024-01-16T11:46:01;6.82;;;2.08;;
33954;SDS011;20233;50.804;7.126;2024-01-16T11:48:27;5.88;;;0.65;;
33954;SDS011;20233;50.804;7.126;2024-01-16T11:50:53;4.55;;;0.40;;
33954;SDS011;20233;50.804;7.126;2024-01-16T11:53:31;3.42;;;0.73;;
33954;SDS011;20233;50.804;7.126;2024-01-16T12:01:22;7.97;;;1.33;;
33954;SDS011;20233;50.804;7.126;2024-01-16T12:04:06;8.00;;;1.25;;
33954;SDS011;20233;50.804;7.126;2024-01-16T12:06:32;3.97;;;1.10;;
33954;SDS011;20233;50.804;7.126;2024-01-16T12:09:11;6.30;;;0.93;;
33954;SDS011;20233;50.804;7.126;2024-01-16T12:11:38;4.28;;;0.70;;
33954;SDS011;20233;50.804;7.126;2024-01-16T12:14:04;6.40;;;0.68;;
33954;SDS011;20233;50.804;7.126;2024-01-16T12:16:30;6.78;;;1.15;;
33954;SDS011;20233;50.804;7.126;2024-01-16T12:19:05;7.78;;;0.93;;
33954;SDS011;20233;50.804;7.126;2024-01-16T12:21:34;12.18;;;1.83;;
33954;SDS011;20233;50.804;7.126;2024-01-16T12:24:04;7.15;;;0.80;;
33954;SDS011;20233;50.804;7.126;2024-01-16T12:26:30;6.10;;;1.27;;
33954;SDS011;20233;50.804;7.126;2024-01-16T12:28:58;5.43;;;0.95;;
33954;SDS011;20233;50.804;7.126;2024-01-16T12:31:24;7.15;;;1.02;;
33954;SDS011;20233;50.804;7.126;2024-01-16T12:33:51;7.80;;;1.48;;
33954;SDS011;20233;50.804;7.126;2024-01-16T12:36:17;7.65;;;1.70;;
33954;SDS011;20233;50.804;7.126;2024-01-16T12:38:42;6.47;;;1.15;;
33954;SDS011;20233;50.804;7.126;2024-01-16T12:41:09;9.82;;;1.50;;
33954;SDS011;20233;50.804;7.126;2024-01-16T12:43:36;4.13;;;1.00;;
33954;SDS011;20233;50.804;7.126;2024-01-16T12:46:02;10.05;;;1.40;;
33954;SDS011;20233;50.804;7.126;2024-01-16T12:48:28;6.47;;;1.10;;
33954;SDS011;20233;50.804;7.126;2024-01-16T12:51:01;5.53;;;1.02;;
33954;SDS011;20233;50.804;7.126;2024-01-16T12:53:29;3.95;;;1.02;;
33954;SDS011;20233;50.804;7.126;2024-01-16T12:55:59;6.45;;;1.55;;
33954;SDS011;20233;50.804;7.126;2024-01-16T12:58:34;8.35;;;1.40;;
33954;SDS011;20233;50.804;7.126;2024-01-16T13:01:24;5.63;;;0.88;;
33954;SDS011;20233;50.804;7.126;2024-01-16T13:03:54;6.28;;;1.70;;
33954;SDS011;20233;50.804;7.126;2024-01-16T13:06:22;6.70;;;1.08;;
33954;SDS011;20233;50.804;7.126;2024-01-16T13:08:50;5.63;;;1.13;;
33954;SDS011;20233;50.804;7.126;2024-01-16T13:14:03;11.50;;;2.17;;
33954;SDS011;20233;50.804;7.126;2024-01-16T13:16:30;8.82;;;1.80;;
33954;SDS011;20233;50.804;7.126;2024-01-16T13:19:02;5.00;;;1.55;;
33954;SDS011;20233;50.804;7.126;2024-01-16T13:21:33;6.82;;;1.20;;
33954;SDS011;20233;50.804;7.126;2024-01-16T13:24:01;5.97;;;0.93;;
33954;SDS011;20233;50.804;7.126;2024-01-16T13:26:30;4.55;;;1.15;;
33954;SDS011;20233;50.804;7.126;2024-01-16T13:28:58;5.97;;;1.50;;
33954;SDS011;20233;50.804;7.126;2024-01-16T13:31:26;4.90;;;1.95;;
33954;SDS011;20233;50.804;7.126;2024-01-16T13:33:53;5.30;;;1.30;;
33954;SDS011;20233;50.804;7.126;2024-01-16T13:36:24;5.43;;;0.80;;
33954;SDS011;20233;50.804;7.126;2024-01-16T13:38:52;4.80;;;1.48;;
33954;SDS011;20233;50.804;7.126;2024-01-16T13:41:20;5.43;;;0.68;;
33954;SDS011;20233;50.804;7.126;2024-01-16T13:43:47;4.80;;;1.00;;
33954;SDS011;20233;50.804;7.126;2024-01-16T13:46:18;7.90;;;1.42;;
33954;SDS011;20233;50.804;7.126;2024-01-16T13:48:45;4.75;;;1.48;;
33954;SDS011;20233;50.804;7.126;2024-01-16T13:51:11;6.45;;;1.20;;
33954;SDS011;20233;50.804;7.126;2024-01-16T13:53:38;6.30;;;1.10;;
33954;SDS011;20233;50.804;7.126;2024-01-16T13:56:04;6.40;;;1.48;;
33954;SDS011;20233;50.804;7.126;2024-01-16T13:58:31;7.72;;;1.20;;
33954;SDS011;20233;50.804;7.126;2024-01-16T14:00:57;6.05;;;1.40;;
33954;SDS011;20233;50.804;7.126;2024-01-16T14:03:24;7.95;;;1.52;;
33954;SDS011;20233;50.804;7.126;2024-01-16T14:05:55;6.88;;;1.17;;
33954;SDS011;20233;50.804;7.126;2024-01-16T14:08:25;4.60;;;1.10;;
33954;SDS011;20233;50.804;7.126;2024-01-16T14:10:52;6.28;;;0.93;;
33954;SDS011;20233;50.804;7.126;2024-01-16T14:13:18;7.70;;;1.20;;
33954;SDS011;20233;50.804;7.126;2024-01-16T14:15:46;6.60;;;1.60;;
33954;SDS011;20233;50.804;7.126;2024-01-16T14:18:16;6.07;;;1.52;;
33954;SDS011;20233;50.804;7.126;2024-01-16T14:20:42;5.20;;;1.50;;
33954;SDS011;20233;50.804;7.126;2024-01-16T14:23:08;6.20;;;1.25;;
33954;SDS011;20233;50.804;7.126;2024-01-16T14:25:34;8.57;;;1.20;;
33954;SDS011;20233;50.804;7.126;2024-01-16T14:28:01;4.78;;;1.00;;
33954;SDS011;20233;50.804;7.126;2024-01-16T14:30:29;6.68;;;1.80;;
33954;SDS011;20233;50.804;7.126;2024-01-16T14:32:56;6.78;;;1.42;;
33954;SDS011;20233;50.804;7.126;2024-01-16T14:35:24;5.10;;;1.83;;
33954;SDS011;20233;50.804;7.126;2024-01-16T14:37:54;4.90;;;0.90;;
33954;SDS011;20233;50.804;7.126;2024-01-16T14:40:22;4.03;;;1.10;;
33954;SDS011;20233;50.804;7.126;2024-01-16T14:42:53;8.30;;;1.65;;
33954;SDS011;20233;50.804;7.126;2024-01-16T14:45:25;8.35;;;1.42;;
33954;SDS011;20233;50.804;7.126;2024-01-16T14:47:54;5.03;;;1.13;;
33954;SDS011;20233;50.804;7.126;2024-01-16T14:50:21;7.13;;;1.02;;
33954;SDS011;20233;50.804;7.126;2024-01-16T14:52:48;5.28;;;0.95;;
33954;SDS011;20233;50.804;7.126;2024-01-16T14:55:16;4.97;;;0.85;;
33954;SDS011;20233;50.804;7.126;2024-01-16T14:57:45;5.53;;;1.70;;
33954;SDS011;20233;50.804;7.126;2024-01-16T15:00:17;5.22;;;1.27;;
33954;SDS011;20233;50.804;7.126;2024-01-16T15:02:52;3.90;;;1.45;;
33954;SDS011;20233;50.804;7.126;2024-01-16T15:05:20;6.22;;;1.90;;